Time;durP1;ratioP1;P1;durP2;ratioP2;P2;SDS_P1;SDS_P2;PMS_P1;PMS_P2;Temp;Humidity;BMP_temperature;BMP_pressure;BME280_temperature;BME280_humidity;BME280_pressure;Samples;Min_cycle;Max_cycle;Signal;HPM_P1;HPM_P2
2021/08/25 00:00:36;;;;;;;9.9;8.9;;;;;;;13.66;100;95790.65;;;;
2021/08/25 00:01:36;;;;;;;9.9;8.9;;;;;;;13.66;100;95790.65;;;;
2021/08/25 00:02:37;;;;;;;9.9;8.9;;;;;;;13.66;100;95790.65;;;;
2021/08/25 00:03:39;;;;;;;9.9;8.9;;;;;;;13.66;100;95790.65;;;;
2021/08/25 00:04:39;;;;;;;9.9;8.9;;;;;;;13.66;100;95790.65;;;;
2021/08/25 00:05:41;;;;;;;9.9;8.9;;;;;;;13.66;100;95790.65;;;;
2021/08/25 00:06:42;;;;;;;9.9;8.9;;;;;;;13.66;100;95790.65;;;;
2021/08/25 00:07:42;;;;;;;9.9;8.9;;;;;;;13.66;100;95790.65;;;;
2021/08/25 00:08:43;;;;;;;9.65;8.750001;;;;;;;13.63;100;95782.45;;;;
2021/08/25 00:09:44;;;;;;;9.65;8.750001;;;;;;;13.63;100;95782.45;;;;
2021/08/25 00:10:44;;;;;;;9.65;8.750001;;;;;;;13.63;100;95782.45;;;;
2021/08/25 00:11:45;;;;;;;9.65;8.750001;;;;;;;13.63;100;95782.45;;;;
2021/08/25 00:12:45;;;;;;;9.65;8.750001;;;;;;;13.63;100;95782.45;;;;
2021/08/25 00:13:46;;;;;;;9.65;8.750001;;;;;;;13.63;100;95782.45;;;;
2021/08/25 00:14:46;;;;;;;9.65;8.750001;;;;;;;13.63;100;95782.45;;;;
2021/08/25 00:15:47;;;;;;;9.65;8.750001;;;;;;;13.63;100;95782.45;;;;
2021/08/25 00:16:47;;;;;;;9.65;8.750001;;;;;;;13.63;100;95782.45;;;;
2021/08/25 00:17:48;;;;;;;9.65;8.750001;;;;;;;13.63;100;95782.45;;;;
2021/08/25 00:18:48;;;;;;;9.65;8.750001;;;;;;;13.63;100;95782.45;;;;
2021/08/25 00:19:49;;;;;;;9.3;8.1;;;;;;;13.62;100;95781.34;;;;
2021/08/25 00:20:50;;;;;;;9.3;8.1;;;;;;;13.62;100;95781.34;;;;
2021/08/25 00:21:50;;;;;;;9.3;8.1;;;;;;;13.62;100;95781.34;;;;
2021/08/25 00:22:51;;;;;;;9.3;8.1;;;;;;;13.62;100;95781.34;;;;
2021/08/25 00:23:51;;;;;;;9.3;8.1;;;;;;;13.62;100;95781.34;;;;
2021/08/25 00:24:52;;;;;;;9.3;8.1;;;;;;;13.62;100;95781.34;;;;
2021/08/25 00:25:53;;;;;;;9.3;8.1;;;;;;;13.62;100;95781.34;;;;
2021/08/25 00:26:54;;;;;;;9.3;8.1;;;;;;;13.62;100;95781.34;;;;
2021/08/25 00:27:55;;;;;;;9.3;8.1;;;;;;;13.62;100;95781.34;;;;
2021/08/25 00:28:55;;;;;;;9.3;8.1;;;;;;;13.62;100;95781.34;;;;
2021/08/25 00:29:56;;;;;;;9.099998;8.200001;;;;;;;13.59;100;95771.92;;;;
2021/08/25 00:30:56;;;;;;;9.099998;8.200001;;;;;;;13.59;100;95771.92;;;;
2021/08/25 00:31:57;;;;;;;9.099998;8.200001;;;;;;;13.59;100;95771.92;;;;
2021/08/25 00:32:57;;;;;;;9.099998;8.200001;;;;;;;13.59;100;95771.92;;;;
2021/08/25 00:33:58;;;;;;;9.099998;8.200001;;;;;;;13.59;100;95771.92;;;;
2021/08/25 00:34:58;;;;;;;9.099998;8.200001;;;;;;;13.59;100;95771.92;;;;
2021/08/25 00:35:59;;;;;;;9.099998;8.200001;;;;;;;13.59;100;95771.92;;;;
2021/08/25 00:36:59;;;;;;;9.099998;8.200001;;;;;;;13.59;100;95771.92;;;;
2021/08/25 00:38:00;;;;;;;9.099998;8.200001;;;;;;;13.59;100;95771.92;;;;
2021/08/25 00:39:00;;;;;;;9.099998;8.200001;;;;;;;13.59;100;95771.92;;;;
2021/08/25 00:40:02;;;;;;;9.099998;8.200001;;;;;;;13.59;100;95771.92;;;;
2021/08/25 00:41:04;;;;;;;8.950002;8.050001;;;;;;;13.56;100;95766.05;;;;
2021/08/25 00:42:05;;;;;;;8.950002;8.050001;;;;;;;13.56;100;95766.05;;;;
2021/08/25 00:43:05;;;;;;;8.950002;8.050001;;;;;;;13.56;100;95766.05;;;;
2021/08/25 00:44:07;;;;;;;8.950002;8.050001;;;;;;;13.56;100;95766.05;;;;
2021/08/25 00:45:08;;;;;;;8.950002;8.050001;;;;;;;13.56;100;95766.05;;;;
2021/08/25 00:46:11;;;;;;;8.950002;8.050001;;;;;;;13.56;100;95766.05;;;;
2021/08/25 00:47:12;;;;;;;8.950002;8.050001;;;;;;;13.56;100;95766.05;;;;
2021/08/25 00:48:13;;;;;;;8.950002;8.050001;;;;;;;13.56;100;95766.05;;;;
2021/08/25 00:49:14;;;;;;;8.950002;8.050001;;;;;;;13.56;100;95766.05;;;;
2021/08/25 00:50:17;;;;;;;8.950002;8.050001;;;;;;;13.56;100;95766.05;;;;
2021/08/25 00:51:18;;;;;;;10.3;9.200002;;;;;;;13.55;100;95762.08;;;;
2021/08/25 00:52:22;;;;;;;10.3;9.200002;;;;;;;13.55;100;95762.08;;;;
2021/08/25 00:53:23;;;;;;;10.3;9.200002;;;;;;;13.55;100;95762.08;;;;
2021/08/25 00:54:23;;;;;;;10.3;9.200002;;;;;;;13.55;100;95762.08;;;;
2021/08/25 00:55:24;;;;;;;10.3;9.200002;;;;;;;13.55;100;95762.08;;;;
2021/08/25 00:56:24;;;;;;;10.3;9.200002;;;;;;;13.55;100;95762.08;;;;
2021/08/25 00:57:25;;;;;;;10.3;9.200002;;;;;;;13.55;100;95762.08;;;;
2021/08/25 00:58:25;;;;;;;10.3;9.200002;;;;;;;13.55;100;95762.08;;;;
2021/08/25 00:59:26;;;;;;;10.3;9.200002;;;;;;;13.55;100;95762.08;;;;
2021/08/25 01:00:27;;;;;;;10.3;9.200002;;;;;;;13.55;100;95762.08;;;;
2021/08/25 01:01:27;;;;;;;10.3;9.200002;;;;;;;13.55;100;95762.08;;;;
2021/08/25 01:02:38;;;;;;;10.85;9.799998;;;;;;;13.54;100;95762.75;;;;
2021/08/25 01:03:46;;;;;;;10.85;9.799998;;;;;;;13.54;100;95762.75;;;;
2021/08/25 01:04:51;;;;;;;10.85;9.799998;;;;;;;13.54;100;95762.75;;;;
2021/08/25 01:05:54;;;;;;;10.85;9.799998;;;;;;;13.54;100;95762.75;;;;
2021/08/25 01:06:57;;;;;;;10.85;9.799998;;;;;;;13.54;100;95762.75;;;;
2021/08/25 01:07:58;;;;;;;10.85;9.799998;;;;;;;13.54;100;95762.75;;;;
2021/08/25 01:09:03;;;;;;;10.85;9.799998;;;;;;;13.54;100;95762.75;;;;
2021/08/25 01:10:04;;;;;;;10.85;9.799998;;;;;;;13.54;100;95762.75;;;;
2021/08/25 01:11:20;;;;;;;10.85;9.799998;;;;;;;13.54;100;95762.75;;;;
2021/08/25 01:12:21;;;;;;;10.3;9.299998;;;;;;;13.58;100;95760.65;;;;
2021/08/25 01:13:23;;;;;;;10.3;9.299998;;;;;;;13.58;100;95760.65;;;;
2021/08/25 01:14:24;;;;;;;10.3;9.299998;;;;;;;13.58;100;95760.65;;;;
2021/08/25 01:15:25;;;;;;;10.3;9.299998;;;;;;;13.58;100;95760.65;;;;
2021/08/25 01:16:26;;;;;;;10.3;9.299998;;;;;;;13.58;100;95760.65;;;;
2021/08/25 01:17:27;;;;;;;10.3;9.299998;;;;;;;13.58;100;95760.65;;;;
2021/08/25 01:18:28;;;;;;;10.3;9.299998;;;;;;;13.58;100;95760.65;;;;
2021/08/25 01:19:29;;;;;;;10.3;9.299998;;;;;;;13.58;100;95760.65;;;;
2021/08/25 01:20:34;;;;;;;10.3;9.299998;;;;;;;13.58;100;95760.65;;;;
2021/08/25 01:21:36;;;;;;;10.3;9.299998;;;;;;;13.58;100;95760.65;;;;
2021/08/25 01:22:36;;;;;;;10.3;9.299998;;;;;;;13.58;100;95760.65;;;;
2021/08/25 01:23:39;;;;;;;11.6;10.4;;;;;;;13.62;100;95760.58;;;;
2021/08/25 01:24:41;;;;;;;11.6;10.4;;;;;;;13.62;100;95760.58;;;;
2021/08/25 01:25:43;;;;;;;11.6;10.4;;;;;;;13.62;100;95760.58;;;;
2021/08/25 01:26:44;;;;;;;11.6;10.4;;;;;;;13.62;100;95760.58;;;;
2021/08/25 01:27:48;;;;;;;11.6;10.4;;;;;;;13.62;100;95760.58;;;;
2021/08/25 01:28:56;;;;;;;11.6;10.4;;;;;;;13.62;100;95760.58;;;;
2021/08/25 01:29:57;;;;;;;11.6;10.4;;;;;;;13.62;100;95760.58;;;;
2021/08/25 01:30:59;;;;;;;11.6;10.4;;;;;;;13.62;100;95760.58;;;;
2021/08/25 01:32:01;;;;;;;11.6;10.4;;;;;;;13.62;100;95760.58;;;;
2021/08/25 01:33:02;;;;;;;11.6;10.4;;;;;;;13.62;100;95760.58;;;;
2021/08/25 01:34:03;;;;;;;12.25;11.05;;;;;;;13.65;100;95753.74;;;;
2021/08/25 01:35:04;;;;;;;12.25;11.05;;;;;;;13.65;100;95753.74;;;;
2021/08/25 01:36:06;;;;;;;12.25;11.05;;;;;;;13.65;100;95753.74;;;;
2021/08/25 01:37:13;;;;;;;12.25;11.05;;;;;;;13.65;100;95753.74;;;;
2021/08/25 01:38:14;;;;;;;12.25;11.05;;;;;;;13.65;100;95753.74;;;;
2021/08/25 01:39:24;;;;;;;12.25;11.05;;;;;;;13.65;100;95753.74;;;;
2021/08/25 01:40:24;;;;;;;12.25;11.05;;;;;;;13.65;100;95753.74;;;;
2021/08/25 01:41:27;;;;;;;12.25;11.05;;;;;;;13.65;100;95753.74;;;;
2021/08/25 01:42:27;;;;;;;12.25;11.05;;;;;;;13.65;100;95753.74;;;;
2021/08/25 01:43:28;;;;;;;12.25;11.05;;;;;;;13.65;100;95753.74;;;;
2021/08/25 01:44:29;;;;;;;12.25;11.05;;;;;;;13.65;100;95753.74;;;;
2021/08/25 01:45:29;;;;;;;12.25;11.05;;;;;;;13.65;100;95753.74;;;;
2021/08/25 01:46:30;;;;;;;12.25;11.05;;;;;;;13.65;100;95753.74;;;;
2021/08/25 01:47:33;;;;;;;12.25;11.05;;;;;;;13.65;100;95753.74;;;;
2021/08/25 01:48:33;;;;;;;12.25;11.05;;;;;;;13.65;100;95753.74;;;;
2021/08/25 01:49:34;;;;;;;12.25;11.05;;;;;;;13.65;100;95753.74;;;;
2021/08/25 01:50:35;;;;;;;12.25;11.05;;;;;;;13.65;100;95753.74;;;;
2021/08/25 01:51:35;;;;;;;12.25;11.05;;;;;;;13.65;100;95753.74;;;;
2021/08/25 01:52:38;;;;;;;12.25;11.05;;;;;;;13.65;100;95753.74;;;;
2021/08/25 01:53:38;;;;;;;12.25;11.05;;;;;;;13.65;100;95753.74;;;;
2021/08/25 01:54:39;;;;;;;12.25;11.05;;;;;;;13.65;100;95753.74;;;;
2021/08/25 01:55:40;;;;;;;13.5;12.2;;;;;;;13.74;100;95736.52;;;;
2021/08/25 01:56:41;;;;;;;13.5;12.2;;;;;;;13.74;100;95736.52;;;;
2021/08/25 01:57:42;;;;;;;13.5;12.2;;;;;;;13.74;100;95736.52;;;;
2021/08/25 01:58:43;;;;;;;13.5;12.2;;;;;;;13.74;100;95736.52;;;;
2021/08/25 01:59:43;;;;;;;13.5;12.2;;;;;;;13.74;100;95736.52;;;;
2021/08/25 02:00:44;;;;;;;13.5;12.2;;;;;;;13.74;100;95736.52;;;;
2021/08/25 02:01:45;;;;;;;13.5;12.2;;;;;;;13.74;100;95736.52;;;;
2021/08/25 02:02:45;;;;;;;13.5;12.2;;;;;;;13.74;100;95736.52;;;;
2021/08/25 02:03:46;;;;;;;13.5;12.2;;;;;;;13.74;100;95736.52;;;;
2021/08/25 02:04:46;;;;;;;13.5;12.2;;;;;;;13.74;100;95736.52;;;;
2021/08/25 02:05:47;;;;;;;12.8;11.65;;;;;;;13.76;100;95719.87;;;;
2021/08/25 02:06:48;;;;;;;12.8;11.65;;;;;;;13.76;100;95719.87;;;;
2021/08/25 02:07:48;;;;;;;12.8;11.65;;;;;;;13.76;100;95719.87;;;;
2021/08/25 02:08:49;;;;;;;12.8;11.65;;;;;;;13.76;100;95719.87;;;;
2021/08/25 02:09:49;;;;;;;12.8;11.65;;;;;;;13.76;100;95719.87;;;;
2021/08/25 02:10:50;;;;;;;12.8;11.65;;;;;;;13.76;100;95719.87;;;;
2021/08/25 02:11:50;;;;;;;12.8;11.65;;;;;;;13.76;100;95719.87;;;;
2021/08/25 02:12:51;;;;;;;12.8;11.65;;;;;;;13.76;100;95719.87;;;;
2021/08/25 02:13:51;;;;;;;12.8;11.65;;;;;;;13.76;100;95719.87;;;;
2021/08/25 02:14:53;;;;;;;12.8;11.65;;;;;;;13.76;100;95719.87;;;;
2021/08/25 02:15:53;;;;;;;12.8;11.65;;;;;;;13.76;100;95719.87;;;;
2021/08/25 02:16:54;;;;;;;12.75;11.55;;;;;;;13.75;100;95704.22;;;;
2021/08/25 02:17:54;;;;;;;12.75;11.55;;;;;;;13.75;100;95704.22;;;;
2021/08/25 02:18:55;;;;;;;12.75;11.55;;;;;;;13.75;100;95704.22;;;;
2021/08/25 02:19:55;;;;;;;12.75;11.55;;;;;;;13.75;100;95704.22;;;;
2021/08/25 02:20:56;;;;;;;12.75;11.55;;;;;;;13.75;100;95704.22;;;;
2021/08/25 02:21:56;;;;;;;12.75;11.55;;;;;;;13.75;100;95704.22;;;;
2021/08/25 02:22:57;;;;;;;12.75;11.55;;;;;;;13.75;100;95704.22;;;;
2021/08/25 02:23:57;;;;;;;12.75;11.55;;;;;;;13.75;100;95704.22;;;;
2021/08/25 02:24:58;;;;;;;12.75;11.55;;;;;;;13.75;100;95704.22;;;;
2021/08/25 02:25:59;;;;;;;12.75;11.55;;;;;;;13.75;100;95704.22;;;;
2021/08/25 02:26:59;;;;;;;13.5;12.1;;;;;;;13.59;100;95697.19;;;;
2021/08/25 02:28:00;;;;;;;13.5;12.1;;;;;;;13.59;100;95697.19;;;;
2021/08/25 02:29:00;;;;;;;13.5;12.1;;;;;;;13.59;100;95697.19;;;;
2021/08/25 02:30:01;;;;;;;13.5;12.1;;;;;;;13.59;100;95697.19;;;;
2021/08/25 02:31:02;;;;;;;13.5;12.1;;;;;;;13.59;100;95697.19;;;;
2021/08/25 02:32:02;;;;;;;13.5;12.1;;;;;;;13.59;100;95697.19;;;;
2021/08/25 02:33:05;;;;;;;13.5;12.1;;;;;;;13.59;100;95697.19;;;;
2021/08/25 02:34:05;;;;;;;13.5;12.1;;;;;;;13.59;100;95697.19;;;;
2021/08/25 02:35:06;;;;;;;13.5;12.1;;;;;;;13.59;100;95697.19;;;;
2021/08/25 02:36:07;;;;;;;13.5;12.1;;;;;;;13.59;100;95697.19;;;;
2021/08/25 02:37:09;;;;;;;13.5;12.1;;;;;;;13.59;100;95697.19;;;;
2021/08/25 02:38:09;;;;;;;13.75;12.35;;;;;;;13.33;100;95669.86;;;;
2021/08/25 02:39:10;;;;;;;13.75;12.35;;;;;;;13.33;100;95669.86;;;;
2021/08/25 02:40:11;;;;;;;13.75;12.35;;;;;;;13.33;100;95669.86;;;;
2021/08/25 02:41:12;;;;;;;13.75;12.35;;;;;;;13.33;100;95669.86;;;;
2021/08/25 02:42:15;;;;;;;13.75;12.35;;;;;;;13.33;100;95669.86;;;;
2021/08/25 02:43:16;;;;;;;13.75;12.35;;;;;;;13.33;100;95669.86;;;;
2021/08/25 02:44:16;;;;;;;13.75;12.35;;;;;;;13.33;100;95669.86;;;;
2021/08/25 02:45:17;;;;;;;13.75;12.35;;;;;;;13.33;100;95669.86;;;;
2021/08/25 02:46:18;;;;;;;13.75;12.35;;;;;;;13.33;100;95669.86;;;;
2021/08/25 02:47:19;;;;;;;13.75;12.35;;;;;;;13.33;100;95669.86;;;;
2021/08/25 02:48:19;;;;;;;13.95;12.6;;;;;;;12.87;100;95665.82;;;;
2021/08/25 02:49:20;;;;;;;13.95;12.6;;;;;;;12.87;100;95665.82;;;;
2021/08/25 02:50:20;;;;;;;13.95;12.6;;;;;;;12.87;100;95665.82;;;;
2021/08/25 02:51:21;;;;;;;13.95;12.6;;;;;;;12.87;100;95665.82;;;;
2021/08/25 02:52:21;;;;;;;13.95;12.6;;;;;;;12.87;100;95665.82;;;;
2021/08/25 02:53:22;;;;;;;13.95;12.6;;;;;;;12.87;100;95665.82;;;;
2021/08/25 02:54:22;;;;;;;13.95;12.6;;;;;;;12.87;100;95665.82;;;;
2021/08/25 02:55:23;;;;;;;13.95;12.6;;;;;;;12.87;100;95665.82;;;;
2021/08/25 02:56:24;;;;;;;13.95;12.6;;;;;;;12.87;100;95665.82;;;;
2021/08/25 02:57:24;;;;;;;13.95;12.6;;;;;;;12.87;100;95665.82;;;;
2021/08/25 02:58:26;;;;;;;13.95;12.6;;;;;;;12.87;100;95665.82;;;;
2021/08/25 02:59:26;;;;;;;14.7;13.3;;;;;;;12.53;100;95686.63;;;;
2021/08/25 03:00:27;;;;;;;14.7;13.3;;;;;;;12.53;100;95686.63;;;;
2021/08/25 03:01:27;;;;;;;14.7;13.3;;;;;;;12.53;100;95686.63;;;;
2021/08/25 03:02:28;;;;;;;14.7;13.3;;;;;;;12.53;100;95686.63;;;;
2021/08/25 03:03:29;;;;;;;14.7;13.3;;;;;;;12.53;100;95686.63;;;;
2021/08/25 03:04:29;;;;;;;14.7;13.3;;;;;;;12.53;100;95686.63;;;;
2021/08/25 03:05:30;;;;;;;14.7;13.3;;;;;;;12.53;100;95686.63;;;;
2021/08/25 03:06:31;;;;;;;14.7;13.3;;;;;;;12.53;100;95686.63;;;;
2021/08/25 03:07:31;;;;;;;14.7;13.3;;;;;;;12.53;100;95686.63;;;;
2021/08/25 03:08:32;;;;;;;14.7;13.3;;;;;;;12.53;100;95686.63;;;;
2021/08/25 03:09:36;;;;;;;14.65;12.85;;;;;;;12.16;100;95673.08;;;;
2021/08/25 03:10:36;;;;;;;14.65;12.85;;;;;;;12.16;100;95673.08;;;;
2021/08/25 03:11:37;;;;;;;14.65;12.85;;;;;;;12.16;100;95673.08;;;;
2021/08/25 03:12:37;;;;;;;14.65;12.85;;;;;;;12.16;100;95673.08;;;;
2021/08/25 03:13:38;;;;;;;14.65;12.85;;;;;;;12.16;100;95673.08;;;;
2021/08/25 03:14:39;;;;;;;14.65;12.85;;;;;;;12.16;100;95673.08;;;;
2021/08/25 03:15:39;;;;;;;14.65;12.85;;;;;;;12.16;100;95673.08;;;;
2021/08/25 03:16:40;;;;;;;14.65;12.85;;;;;;;12.16;100;95673.08;;;;
2021/08/25 03:17:41;;;;;;;14.65;12.85;;;;;;;12.16;100;95673.08;;;;
2021/08/25 03:18:41;;;;;;;14.65;12.85;;;;;;;12.16;100;95673.08;;;;
2021/08/25 03:19:42;;;;;;;14.65;12.85;;;;;;;12.16;100;95673.08;;;;
2021/08/25 03:20:42;;;;;;;16.8;15.15;;;;;;;11.84;100;95671.64;;;;
2021/08/25 03:21:43;;;;;;;16.8;15.15;;;;;;;11.84;100;95671.64;;;;
2021/08/25 03:22:43;;;;;;;16.8;15.15;;;;;;;11.84;100;95671.64;;;;
2021/08/25 03:23:44;;;;;;;16.8;15.15;;;;;;;11.84;100;95671.64;;;;
2021/08/25 03:24:44;;;;;;;16.8;15.15;;;;;;;11.84;100;95671.64;;;;
2021/08/25 03:25:45;;;;;;;16.8;15.15;;;;;;;11.84;100;95671.64;;;;
2021/08/25 03:26:45;;;;;;;16.8;15.15;;;;;;;11.84;100;95671.64;;;;
2021/08/25 03:27:46;;;;;;;16.8;15.15;;;;;;;11.84;100;95671.64;;;;
2021/08/25 03:28:47;;;;;;;16.8;15.15;;;;;;;11.84;100;95671.64;;;;
2021/08/25 03:29:47;;;;;;;16.8;15.15;;;;;;;11.84;100;95671.64;;;;
2021/08/25 03:30:48;;;;;;;16.8;15.15;;;;;;;11.84;100;95671.64;;;;
2021/08/25 03:31:48;;;;;;;17.2;15.25;;;;;;;11.62;100;95673.36;;;;
2021/08/25 03:32:49;;;;;;;17.2;15.25;;;;;;;11.62;100;95673.36;;;;
2021/08/25 03:33:49;;;;;;;17.2;15.25;;;;;;;11.62;100;95673.36;;;;
2021/08/25 03:34:50;;;;;;;17.2;15.25;;;;;;;11.62;100;95673.36;;;;
2021/08/25 03:35:50;;;;;;;17.2;15.25;;;;;;;11.62;100;95673.36;;;;
2021/08/25 03:36:52;;;;;;;17.2;15.25;;;;;;;11.62;100;95673.36;;;;
2021/08/25 03:37:52;;;;;;;17.2;15.25;;;;;;;11.62;100;95673.36;;;;
2021/08/25 03:38:53;;;;;;;17.2;15.25;;;;;;;11.62;100;95673.36;;;;
2021/08/25 03:39:53;;;;;;;17.2;15.25;;;;;;;11.62;100;95673.36;;;;
2021/08/25 03:40:54;;;;;;;17.2;15.25;;;;;;;11.62;100;95673.36;;;;
2021/08/25 03:41:54;;;;;;;18.5;15.3;;;;;;;11.43;100;95673.02;;;;
2021/08/25 03:42:55;;;;;;;18.5;15.3;;;;;;;11.43;100;95673.02;;;;
2021/08/25 03:43:55;;;;;;;18.5;15.3;;;;;;;11.43;100;95673.02;;;;
2021/08/25 03:44:56;;;;;;;18.5;15.3;;;;;;;11.43;100;95673.02;;;;
2021/08/25 03:45:56;;;;;;;18.5;15.3;;;;;;;11.43;100;95673.02;;;;
2021/08/25 03:46:57;;;;;;;18.5;15.3;;;;;;;11.43;100;95673.02;;;;
2021/08/25 03:47:57;;;;;;;18.5;15.3;;;;;;;11.43;100;95673.02;;;;
2021/08/25 03:48:58;;;;;;;18.5;15.3;;;;;;;11.43;100;95673.02;;;;
2021/08/25 03:49:58;;;;;;;18.5;15.3;;;;;;;11.43;100;95673.02;;;;
2021/08/25 03:50:59;;;;;;;18.5;15.3;;;;;;;11.43;100;95673.02;;;;
2021/08/25 03:52:00;;;;;;;18.5;15.3;;;;;;;11.43;100;95673.02;;;;
2021/08/25 03:53:01;;;;;;;16.95;15.2;;;;;;;11.29;100;95671.99;;;;
2021/08/25 03:54:02;;;;;;;16.95;15.2;;;;;;;11.29;100;95671.99;;;;
2021/08/25 03:55:02;;;;;;;16.95;15.2;;;;;;;11.29;100;95671.99;;;;
2021/08/25 03:56:04;;;;;;;16.95;15.2;;;;;;;11.29;100;95671.99;;;;
2021/08/25 03:57:05;;;;;;;16.95;15.2;;;;;;;11.29;100;95671.99;;;;
2021/08/25 03:58:05;;;;;;;16.95;15.2;;;;;;;11.29;100;95671.99;;;;
2021/08/25 03:59:06;;;;;;;16.95;15.2;;;;;;;11.29;100;95671.99;;;;
2021/08/25 04:00:06;;;;;;;16.95;15.2;;;;;;;11.29;100;95671.99;;;;
2021/08/25 04:01:08;;;;;;;16.95;15.2;;;;;;;11.29;100;95671.99;;;;
2021/08/25 04:02:08;;;;;;;16.95;15.2;;;;;;;11.29;100;95671.99;;;;
2021/08/25 04:03:09;;;;;;;17.6;15.75;;;;;;;11.24;100;95662.38;;;;
2021/08/25 04:04:09;;;;;;;17.6;15.75;;;;;;;11.24;100;95662.38;;;;
2021/08/25 04:05:10;;;;;;;17.6;15.75;;;;;;;11.24;100;95662.38;;;;
2021/08/25 04:06:11;;;;;;;17.6;15.75;;;;;;;11.24;100;95662.38;;;;
2021/08/25 04:07:12;;;;;;;17.6;15.75;;;;;;;11.24;100;95662.38;;;;
2021/08/25 04:08:13;;;;;;;17.6;15.75;;;;;;;11.24;100;95662.38;;;;
2021/08/25 04:09:13;;;;;;;17.6;15.75;;;;;;;11.24;100;95662.38;;;;
2021/08/25 04:10:14;;;;;;;17.6;15.75;;;;;;;11.24;100;95662.38;;;;
2021/08/25 04:11:15;;;;;;;17.6;15.75;;;;;;;11.24;100;95662.38;;;;
2021/08/25 04:12:18;;;;;;;17.6;15.75;;;;;;;11.24;100;95662.38;;;;
2021/08/25 04:13:19;;;;;;;17.6;15.75;;;;;;;11.24;100;95662.38;;;;
2021/08/25 04:14:19;;;;;;;18.6;16.6;;;;;;;11.13;100;95655.59;;;;
2021/08/25 04:15:20;;;;;;;18.6;16.6;;;;;;;11.13;100;95655.59;;;;
2021/08/25 04:16:20;;;;;;;18.6;16.6;;;;;;;11.13;100;95655.59;;;;
2021/08/25 04:17:21;;;;;;;18.6;16.6;;;;;;;11.13;100;95655.59;;;;
2021/08/25 04:18:21;;;;;;;18.6;16.6;;;;;;;11.13;100;95655.59;;;;
2021/08/25 04:19:22;;;;;;;18.6;16.6;;;;;;;11.13;100;95655.59;;;;
2021/08/25 04:20:22;;;;;;;18.6;16.6;;;;;;;11.13;100;95655.59;;;;
2021/08/25 04:21:23;;;;;;;18.6;16.6;;;;;;;11.13;100;95655.59;;;;
2021/08/25 04:22:24;;;;;;;18.6;16.6;;;;;;;11.13;100;95655.59;;;;
2021/08/25 04:23:24;;;;;;;18.6;16.6;;;;;;;11.13;100;95655.59;;;;
2021/08/25 04:24:25;;;;;;;20.25;17.2;;;;;;;11.02;100;95650.98;;;;
2021/08/25 04:25:26;;;;;;;20.25;17.2;;;;;;;11.02;100;95650.98;;;;
2021/08/25 04:26:27;;;;;;;20.25;17.2;;;;;;;11.02;100;95650.98;;;;
2021/08/25 04:27:27;;;;;;;20.25;17.2;;;;;;;11.02;100;95650.98;;;;
2021/08/25 04:28:28;;;;;;;20.25;17.2;;;;;;;11.02;100;95650.98;;;;
2021/08/25 04:29:28;;;;;;;20.25;17.2;;;;;;;11.02;100;95650.98;;;;
2021/08/25 04:30:29;;;;;;;20.25;17.2;;;;;;;11.02;100;95650.98;;;;
2021/08/25 04:31:29;;;;;;;20.25;17.2;;;;;;;11.02;100;95650.98;;;;
2021/08/25 04:32:30;;;;;;;20.25;17.2;;;;;;;11.02;100;95650.98;;;;
2021/08/25 04:33:30;;;;;;;20.25;17.2;;;;;;;11.02;100;95650.98;;;;
2021/08/25 04:34:31;;;;;;;20.25;17.2;;;;;;;11.02;100;95650.98;;;;
2021/08/25 04:35:32;;;;;;;20.9;18.6;;;;;;;11;100;95649.02;;;;
2021/08/25 04:36:32;;;;;;;20.9;18.6;;;;;;;11;100;95649.02;;;;
2021/08/25 04:37:33;;;;;;;20.9;18.6;;;;;;;11;100;95649.02;;;;
2021/08/25 04:38:33;;;;;;;20.9;18.6;;;;;;;11;100;95649.02;;;;
2021/08/25 04:39:34;;;;;;;20.9;18.6;;;;;;;11;100;95649.02;;;;
2021/08/25 04:40:34;;;;;;;20.9;18.6;;;;;;;11;100;95649.02;;;;
2021/08/25 04:41:35;;;;;;;20.9;18.6;;;;;;;11;100;95649.02;;;;
2021/08/25 04:42:36;;;;;;;20.9;18.6;;;;;;;11;100;95649.02;;;;
2021/08/25 04:43:36;;;;;;;20.9;18.6;;;;;;;11;100;95649.02;;;;
2021/08/25 04:44:37;;;;;;;20.9;18.6;;;;;;;11;100;95649.02;;;;
2021/08/25 04:45:37;;;;;;;19.95;17.45;;;;;;;11;100;95649.44;;;;
2021/08/25 04:46:38;;;;;;;19.95;17.45;;;;;;;11;100;95649.44;;;;
2021/08/25 04:47:38;;;;;;;19.95;17.45;;;;;;;11;100;95649.44;;;;
2021/08/25 04:48:39;;;;;;;19.95;17.45;;;;;;;11;100;95649.44;;;;
2021/08/25 04:49:39;;;;;;;19.95;17.45;;;;;;;11;100;95649.44;;;;
2021/08/25 04:50:40;;;;;;;19.95;17.45;;;;;;;11;100;95649.44;;;;
2021/08/25 04:51:40;;;;;;;19.95;17.45;;;;;;;11;100;95649.44;;;;
2021/08/25 04:52:41;;;;;;;19.95;17.45;;;;;;;11;100;95649.44;;;;
2021/08/25 04:53:41;;;;;;;19.95;17.45;;;;;;;11;100;95649.44;;;;
2021/08/25 04:54:43;;;;;;;19.95;17.45;;;;;;;11;100;95649.44;;;;
2021/08/25 04:55:44;;;;;;;19.95;17.45;;;;;;;11;100;95649.44;;;;
2021/08/25 04:56:45;;;;;;;20.6;18.4;;;;;;;11.02;100;95649.63;;;;
2021/08/25 04:57:46;;;;;;;20.6;18.4;;;;;;;11.02;100;95649.63;;;;
2021/08/25 04:58:46;;;;;;;20.6;18.4;;;;;;;11.02;100;95649.63;;;;
2021/08/25 04:59:47;;;;;;;20.6;18.4;;;;;;;11.02;100;95649.63;;;;
2021/08/25 05:00:48;;;;;;;20.6;18.4;;;;;;;11.02;100;95649.63;;;;
2021/08/25 05:01:49;;;;;;;20.6;18.4;;;;;;;11.02;100;95649.63;;;;
2021/08/25 05:02:49;;;;;;;20.6;18.4;;;;;;;11.02;100;95649.63;;;;
2021/08/25 05:03:50;;;;;;;20.6;18.4;;;;;;;11.02;100;95649.63;;;;
2021/08/25 05:04:51;;;;;;;20.6;18.4;;;;;;;11.02;100;95649.63;;;;
2021/08/25 05:05:51;;;;;;;20.6;18.4;;;;;;;11.02;100;95649.63;;;;
2021/08/25 05:06:52;;;;;;;20.6;18.4;;;;;;;11.02;100;95649.63;;;;
2021/08/25 05:07:52;;;;;;;25.4;18.55;;;;;;;11.01;100;95648.79;;;;
2021/08/25 05:08:52;;;;;;;25.4;18.55;;;;;;;11.01;100;95648.79;;;;
2021/08/25 05:09:53;;;;;;;25.4;18.55;;;;;;;11.01;100;95648.79;;;;
2021/08/25 05:10:54;;;;;;;25.4;18.55;;;;;;;11.01;100;95648.79;;;;
2021/08/25 05:11:54;;;;;;;25.4;18.55;;;;;;;11.01;100;95648.79;;;;
2021/08/25 05:12:55;;;;;;;25.4;18.55;;;;;;;11.01;100;95648.79;;;;
2021/08/25 05:13:55;;;;;;;25.4;18.55;;;;;;;11.01;100;95648.79;;;;
2021/08/25 05:14:56;;;;;;;25.4;18.55;;;;;;;11.01;100;95648.79;;;;
2021/08/25 05:15:56;;;;;;;25.4;18.55;;;;;;;11.01;100;95648.79;;;;
2021/08/25 05:16:57;;;;;;;25.4;18.55;;;;;;;11.01;100;95648.79;;;;
2021/08/25 05:17:57;;;;;;;19.9;17.15;;;;;;;11.09;100;95643.59;;;;
2021/08/25 05:18:58;;;;;;;19.9;17.15;;;;;;;11.09;100;95643.59;;;;
2021/08/25 05:19:58;;;;;;;19.9;17.15;;;;;;;11.09;100;95643.59;;;;
2021/08/25 05:21:00;;;;;;;19.9;17.15;;;;;;;11.09;100;95643.59;;;;
2021/08/25 05:22:00;;;;;;;19.9;17.15;;;;;;;11.09;100;95643.59;;;;
2021/08/25 05:23:01;;;;;;;19.9;17.15;;;;;;;11.09;100;95643.59;;;;
2021/08/25 05:24:01;;;;;;;19.9;17.15;;;;;;;11.09;100;95643.59;;;;
2021/08/25 05:25:02;;;;;;;19.9;17.15;;;;;;;11.09;100;95643.59;;;;
2021/08/25 05:26:04;;;;;;;19.9;17.15;;;;;;;11.09;100;95643.59;;;;
2021/08/25 05:27:05;;;;;;;19.9;17.15;;;;;;;11.09;100;95643.59;;;;
2021/08/25 05:28:06;;;;;;;19.9;17.15;;;;;;;11.09;100;95643.59;;;;
2021/08/25 05:29:06;;;;;;;18.55;16.5;;;;;;;11.24;100;95652.11;;;;
2021/08/25 05:30:07;;;;;;;18.55;16.5;;;;;;;11.24;100;95652.11;;;;
2021/08/25 05:31:09;;;;;;;18.55;16.5;;;;;;;11.24;100;95652.11;;;;
2021/08/25 05:32:09;;;;;;;18.55;16.5;;;;;;;11.24;100;95652.11;;;;
2021/08/25 05:33:10;;;;;;;18.55;16.5;;;;;;;11.24;100;95652.11;;;;
2021/08/25 05:34:12;;;;;;;18.55;16.5;;;;;;;11.24;100;95652.11;;;;
2021/08/25 05:35:12;;;;;;;18.55;16.5;;;;;;;11.24;100;95652.11;;;;
2021/08/25 05:36:13;;;;;;;18.55;16.5;;;;;;;11.24;100;95652.11;;;;
2021/08/25 05:37:13;;;;;;;18.55;16.5;;;;;;;11.24;100;95652.11;;;;
2021/08/25 05:38:14;;;;;;;18.55;16.5;;;;;;;11.24;100;95652.11;;;;
2021/08/25 05:39:14;;;;;;;18.55;16.5;;;;;;;11.24;100;95652.11;;;;
2021/08/25 05:40:15;;;;;;;18.55;16.5;;;;;;;11.24;100;95652.11;;;;
2021/08/25 05:41:16;;;;;;;18.55;16.5;;;;;;;11.24;100;95652.11;;;;
2021/08/25 05:42:17;;;;;;;18.55;16.5;;;;;;;11.24;100;95652.11;;;;
2021/08/25 05:43:17;;;;;;;18.55;16.5;;;;;;;11.24;100;95652.11;;;;
2021/08/25 05:44:18;;;;;;;18.55;16.5;;;;;;;11.24;100;95652.11;;;;
2021/08/25 05:45:19;;;;;;;18.55;16.5;;;;;;;11.24;100;95652.11;;;;
2021/08/25 05:46:19;;;;;;;18.55;16.5;;;;;;;11.24;100;95652.11;;;;
2021/08/25 05:47:20;;;;;;;18.55;16.5;;;;;;;11.24;100;95652.11;;;;
2021/08/25 05:48:20;;;;;;;18.55;16.5;;;;;;;11.24;100;95652.11;;;;
2021/08/25 05:49:21;;;;;;;18.55;16.5;;;;;;;11.24;100;95652.11;;;;
2021/08/25 05:50:21;;;;;;;17.2;15.45;;;;;;;11.76;100;95651.82;;;;
2021/08/25 05:51:22;;;;;;;17.2;15.45;;;;;;;11.76;100;95651.82;;;;
2021/08/25 05:52:22;;;;;;;17.2;15.45;;;;;;;11.76;100;95651.82;;;;
2021/08/25 05:53:24;;;;;;;17.2;15.45;;;;;;;11.76;100;95651.82;;;;
2021/08/25 05:54:25;;;;;;;17.2;15.45;;;;;;;11.76;100;95651.82;;;;
2021/08/25 05:55:25;;;;;;;17.2;15.45;;;;;;;11.76;100;95651.82;;;;
2021/08/25 05:56:26;;;;;;;17.2;15.45;;;;;;;11.76;100;95651.82;;;;
2021/08/25 05:57:26;;;;;;;17.2;15.45;;;;;;;11.76;100;95651.82;;;;
2021/08/25 05:58:27;;;;;;;17.2;15.45;;;;;;;11.76;100;95651.82;;;;
2021/08/25 05:59:27;;;;;;;17.2;15.45;;;;;;;11.76;100;95651.82;;;;
2021/08/25 06:00:28;;;;;;;14.8;12.9;;;;;;;12.07;100;95641.88;;;;
2021/08/25 06:01:29;;;;;;;14.8;12.9;;;;;;;12.07;100;95641.88;;;;
2021/08/25 06:02:30;;;;;;;14.8;12.9;;;;;;;12.07;100;95641.88;;;;
2021/08/25 06:03:30;;;;;;;14.8;12.9;;;;;;;12.07;100;95641.88;;;;